METAR Data

Data at: 0237 UTC 21 Sep 2018

METAR for:KLAX (Los Angeles Intl, CA, US)
Text:KLAX 210153Z 26006KT 9SM FEW010 21/17 A2986 RMK AO2 SLP111 T02060167
Temperature: 20.6°C ( 69°F)
Dewpoint: 16.7°C ( 62°F) [RH = 78%]
Pressure (altimeter):29.86 inches Hg (1011.3 mb) [Sea level pressure: 1011.1 mb]
Winds:from the W (260 degrees) at 7 MPH (6 knots; 3.1 m/s)
Visibility: 9 sm ( 14 km)
Ceiling:at least 12,000 feet AGL
Clouds: few clouds at 1000 feet AGL